Terminal Aerodrome Forecast
Issued by NWS

Home | Current Version | Previous Version | Text Only | Print | Product List | Glossary On
Versions: 1 2 3 4 5 6 7 8 9 10 11 12 13 14 15 16 17 18 19 20 21 22 23 24
000
FTUS43 KGRB 202200 AAB
TAFRHI
TAF AMD
KRHI 202200Z 2022/2118 21008KT P6SM SCT015 BKN025
     FM210000 31004KT P6SM SCT025
      TEMPO 2104/2108 2SM BR
     FM210800 03004KT 1 1/2SM BR SCT005
      TEMPO 2109/2113 1/2SM FG BKN002
     FM211400 11006KT P6SM BKN012=

USA.gov is the U.S. government's official web portal to all federal, state and local government web resources and services.